sensor_id;sensor_type;location;lat;lon;timestamp;pressure;altitude;pressure_sealevel;temperature;humidity
7668;BME280;3876;42.204;24.686;2022-09-12T00:01:54;99039.16;;;19.59;100.00
7668;BME280;3876;42.204;24.686;2022-09-12T00:04:23;99043.41;;;19.60;100.00
7668;BME280;3876;42.204;24.686;2022-09-12T00:06:51;99040.81;;;19.60;100.00
7668;BME280;3876;42.204;24.686;2022-09-12T00:09:18;99026.84;;;19.61;100.00
7668;BME280;3876;42.204;24.686;2022-09-12T00:11:45;99007.78;;;19.50;100.00
7668;BME280;3876;42.204;24.686;2022-09-12T00:14:14;99011.00;;;19.53;100.00
7668;BME280;3876;42.204;24.686;2022-09-12T00:16:41;99020.09;;;19.59;100.00
7668;BME280;3876;42.204;24.686;2022-09-12T00:19:09;99008.66;;;19.61;100.00
7668;BME280;3876;42.204;24.686;2022-09-12T00:21:38;98999.66;;;19.54;100.00
7668;BME280;3876;42.204;24.686;2022-09-12T00:24:06;99025.22;;;19.60;100.00
7668;BME280;3876;42.204;24.686;2022-09-12T00:26:33;99041.53;;;19.62;100.00
7668;BME280;3876;42.204;24.686;2022-09-12T00:29:00;99037.25;;;19.61;100.00
7668;BME280;3876;42.204;24.686;2022-09-12T00:31:27;99042.44;;;19.61;100.00
7668;BME280;3876;42.204;24.686;2022-09-12T00:33:55;99040.69;;;19.62;100.00
7668;BME280;3876;42.204;24.686;2022-09-12T00:36:23;99042.44;;;19.61;100.00
7668;BME280;3876;42.204;24.686;2022-09-12T00:38:52;99036.31;;;19.62;100.00
7668;BME280;3876;42.204;24.686;2022-09-12T00:41:22;99037.88;;;19.65;100.00
7668;BME280;3876;42.204;24.686;2022-09-12T00:43:51;99036.22;;;19.64;100.00
7668;BME280;3876;42.204;24.686;2022-09-12T00:46:27;99023.59;;;19.70;100.00
7668;BME280;3876;42.204;24.686;2022-09-12T00:48:58;99015.34;;;19.76;100.00
7668;BME280;3876;42.204;24.686;2022-09-12T00:51:28;99017.59;;;19.81;100.00
7668;BME280;3876;42.204;24.686;2022-09-12T00:54:02;99011.34;;;19.83;100.00
7668;BME280;3876;42.204;24.686;2022-09-12T00:56:31;99027.75;;;19.84;100.00
7668;BME280;3876;42.204;24.686;2022-09-12T00:59:02;99026.84;;;19.85;100.00
7668;BME280;3876;42.204;24.686;2022-09-12T01:01:30;99030.28;;;19.85;100.00
7668;BME280;3876;42.204;24.686;2022-09-12T01:03:57;99029.22;;;19.88;100.00
7668;BME280;3876;42.204;24.686;2022-09-12T01:06:26;99016.09;;;19.89;100.00
7668;BME280;3876;42.204;24.686;2022-09-12T01:08:54;99015.03;;;19.92;100.00
7668;BME280;3876;42.204;24.686;2022-09-12T01:11:23;99020.16;;;20.05;100.00
7668;BME280;3876;42.204;24.686;2022-09-12T01:13:50;99021.34;;;20.12;100.00
7668;BME280;3876;42.204;24.686;2022-09-12T01:16:17;99020.19;;;20.16;100.00
7668;BME280;3876;42.204;24.686;2022-09-12T01:18:53;99024.19;;;20.20;100.00
7668;BME280;3876;42.204;24.686;2022-09-12T01:21:31;99019.72;;;20.22;100.00
7668;BME280;3876;42.204;24.686;2022-09-12T01:24:19;99012.84;;;20.21;100.00
7668;BME280;3876;42.204;24.686;2022-09-12T01:27:19;99013.31;;;20.26;100.00
7668;BME280;3876;42.204;24.686;2022-09-12T01:30:04;99010.00;;;20.24;100.00
7668;BME280;3876;42.204;24.686;2022-09-12T01:32:42;99005.03;;;20.21;100.00
7668;BME280;3876;42.204;24.686;2022-09-12T01:35:18;98990.72;;;20.15;100.00
7668;BME280;3876;42.204;24.686;2022-09-12T01:37:54;99008.56;;;20.20;100.00
7668;BME280;3876;42.204;24.686;2022-09-12T01:40:30;99010.47;;;20.18;100.00
7668;BME280;3876;42.204;24.686;2022-09-12T01:43:06;98995.06;;;20.04;100.00
7668;BME280;3876;42.204;24.686;2022-09-12T01:45:40;99002.06;;;20.03;100.00
7668;BME280;3876;42.204;24.686;2022-09-12T01:48:14;99012.53;;;19.90;100.00
7668;BME280;3876;42.204;24.686;2022-09-12T01:50:49;99008.69;;;19.72;100.00
7668;BME280;3876;42.204;24.686;2022-09-12T01:53:19;99009.16;;;19.66;100.00
7668;BME280;3876;42.204;24.686;2022-09-12T01:55:50;99001.28;;;19.55;100.00
7668;BME280;3876;42.204;24.686;2022-09-12T01:58:22;98970.44;;;19.27;100.00
7668;BME280;3876;42.204;24.686;2022-09-12T02:00:57;98994.03;;;19.24;100.00
7668;BME280;3876;42.204;24.686;2022-09-12T02:03:30;98993.97;;;19.13;100.00
7668;BME280;3876;42.204;24.686;2022-09-12T02:06:01;98997.97;;;19.06;100.00
7668;BME280;3876;42.204;24.686;2022-09-12T02:08:33;98997.16;;;18.93;100.00
7668;BME280;3876;42.204;24.686;2022-09-12T02:11:07;98992.19;;;18.90;100.00
7668;BME280;3876;42.204;24.686;2022-09-12T02:13:37;98992.63;;;18.83;100.00
7668;BME280;3876;42.204;24.686;2022-09-12T02:16:07;98996.59;;;18.76;100.00
7668;BME280;3876;42.204;24.686;2022-09-12T02:18:39;98996.19;;;18.70;100.00
7668;BME280;3876;42.204;24.686;2022-09-12T02:21:08;98998.38;;;18.63;100.00
7668;BME280;3876;42.204;24.686;2022-09-12T02:23:38;98994.44;;;18.58;100.00
7668;BME280;3876;42.204;24.686;2022-09-12T02:26:11;98990.19;;;18.57;100.00
7668;BME280;3876;42.204;24.686;2022-09-12T02:28:41;98984.13;;;18.44;100.00
7668;BME280;3876;42.204;24.686;2022-09-12T02:31:13;98992.84;;;18.43;100.00
7668;BME280;3876;42.204;24.686;2022-09-12T02:33:48;98993.69;;;18.43;100.00
7668;BME280;3876;42.204;24.686;2022-09-12T02:36:31;99001.56;;;18.29;100.00
7668;BME280;3876;42.204;24.686;2022-09-12T02:39:00;98996.19;;;18.19;100.00
7668;BME280;3876;42.204;24.686;2022-09-12T02:41:27;99001.16;;;18.22;100.00
7668;BME280;3876;42.204;24.686;2022-09-12T02:43:54;99006.03;;;18.27;100.00
7668;BME280;3876;42.204;24.686;2022-09-12T02:46:23;99012.16;;;18.26;100.00
7668;BME280;3876;42.204;24.686;2022-09-12T02:48:54;99004.16;;;18.16;100.00
7668;BME280;3876;42.204;24.686;2022-09-12T02:51:21;99001.16;;;18.10;100.00
7668;BME280;3876;42.204;24.686;2022-09-12T02:53:48;99003.03;;;18.08;100.00
7668;BME280;3876;42.204;24.686;2022-09-12T02:56:20;98997.44;;;18.14;100.00
7668;BME280;3876;42.204;24.686;2022-09-12T02:58:49;98994.31;;;18.21;100.00
7668;BME280;3876;42.204;24.686;2022-09-12T03:01:26;98997.34;;;18.28;100.00
7668;BME280;3876;42.204;24.686;2022-09-12T03:04:15;98994.84;;;18.26;100.00
7668;BME280;3876;42.204;24.686;2022-09-12T03:06:50;98990.47;;;18.27;100.00
7668;BME280;3876;42.204;24.686;2022-09-12T03:09:26;98993.91;;;18.27;100.00
7668;BME280;3876;42.204;24.686;2022-09-12T03:12:06;98971.06;;;18.20;100.00
7668;BME280;3876;42.204;24.686;2022-09-12T03:14:48;98999.31;;;18.37;100.00
7668;BME280;3876;42.204;24.686;2022-09-12T03:17:24;98997.00;;;18.45;100.00
7668;BME280;3876;42.204;24.686;2022-09-12T03:19:59;99002.41;;;18.55;100.00
7668;BME280;3876;42.204;24.686;2022-09-12T03:22:32;99000.22;;;18.61;100.00
7668;BME280;3876;42.204;24.686;2022-09-12T03:25:05;99000.53;;;18.69;100.00
7668;BME280;3876;42.204;24.686;2022-09-12T03:27:39;98998.44;;;18.74;100.00
7668;BME280;3876;42.204;24.686;2022-09-12T03:30:09;98994.91;;;18.75;100.00
7668;BME280;3876;42.204;24.686;2022-09-12T03:32:41;98997.50;;;18.75;100.00
7668;BME280;3876;42.204;24.686;2022-09-12T03:35:10;98997.63;;;18.61;100.00
7668;BME280;3876;42.204;24.686;2022-09-12T03:37:37;99005.22;;;18.64;100.00
7668;BME280;3876;42.204;24.686;2022-09-12T03:40:05;99008.00;;;18.49;100.00
7668;BME280;3876;42.204;24.686;2022-09-12T03:42:32;99008.00;;;18.36;100.00
7668;BME280;3876;42.204;24.686;2022-09-12T03:44:59;99003.66;;;18.24;100.00
7668;BME280;3876;42.204;24.686;2022-09-12T03:47:26;98998.25;;;18.14;100.00
7668;BME280;3876;42.204;24.686;2022-09-12T03:49:53;99004.38;;;18.01;100.00
7668;BME280;3876;42.204;24.686;2022-09-12T03:52:21;99003.00;;;17.82;100.00
7668;BME280;3876;42.204;24.686;2022-09-12T03:54:48;99004.63;;;17.71;100.00
7668;BME280;3876;42.204;24.686;2022-09-12T03:57:15;99015.09;;;17.69;100.00
7668;BME280;3876;42.204;24.686;2022-09-12T03:59:42;99005.03;;;17.65;100.00
7668;BME280;3876;42.204;24.686;2022-09-12T04:02:09;99006.78;;;17.64;100.00
7668;BME280;3876;42.204;24.686;2022-09-12T04:04:39;99008.38;;;17.67;100.00
7668;BME280;3876;42.204;24.686;2022-09-12T04:07:07;99004.72;;;17.57;100.00
7668;BME280;3876;42.204;24.686;2022-09-12T04:09:35;99013.97;;;17.61;100.00
7668;BME280;3876;42.204;24.686;2022-09-12T04:12:02;99015.50;;;17.63;100.00
7668;BME280;3876;42.204;24.686;2022-09-12T04:14:29;99016.34;;;17.64;100.00
7668;BME280;3876;42.204;24.686;2022-09-12T04:16:56;99022.53;;;17.61;100.00
7668;BME280;3876;42.204;24.686;2022-09-12T04:19:24;99021.81;;;17.59;100.00
7668;BME280;3876;42.204;24.686;2022-09-12T04:21:51;99005.16;;;17.49;100.00
7668;BME280;3876;42.204;24.686;2022-09-12T04:24:18;99027.38;;;17.53;100.00
7668;BME280;3876;42.204;24.686;2022-09-12T04:26:46;99020.50;;;17.52;100.00
7668;BME280;3876;42.204;24.686;2022-09-12T04:29:13;99024.03;;;17.51;100.00
7668;BME280;3876;42.204;24.686;2022-09-12T04:31:40;99018.50;;;17.57;100.00
7668;BME280;3876;42.204;24.686;2022-09-12T04:34:08;99029.69;;;17.58;100.00
7668;BME280;3876;42.204;24.686;2022-09-12T04:36:35;99022.66;;;17.60;100.00
7668;BME280;3876;42.204;24.686;2022-09-12T04:39:03;99034.50;;;17.64;100.00
7668;BME280;3876;42.204;24.686;2022-09-12T04:41:32;99019.75;;;17.64;100.00
7668;BME280;3876;42.204;24.686;2022-09-12T04:44:02;99037.84;;;17.78;100.00
7668;BME280;3876;42.204;24.686;2022-09-12T04:46:29;99037.63;;;17.81;100.00
7668;BME280;3876;42.204;24.686;2022-09-12T04:48:57;99033.72;;;17.89;100.00
7668;BME280;3876;42.204;24.686;2022-09-12T04:51:26;99043.47;;;17.98;100.00
7668;BME280;3876;42.204;24.686;2022-09-12T04:53:55;99049.72;;;18.08;100.00
7668;BME280;3876;42.204;24.686;2022-09-12T04:56:22;99053.16;;;18.21;100.00
7668;BME280;3876;42.204;24.686;2022-09-12T04:58:49;99053.88;;;18.35;100.00
7668;BME280;3876;42.204;24.686;2022-09-12T05:01:19;99054.09;;;18.45;100.00
7668;BME280;3876;42.204;24.686;2022-09-12T05:03:48;99055.38;;;18.52;100.00
7668;BME280;3876;42.204;24.686;2022-09-12T05:06:17;99063.78;;;18.68;100.00
7668;BME280;3876;42.204;24.686;2022-09-12T05:08:45;99059.75;;;18.77;100.00
7668;BME280;3876;42.204;24.686;2022-09-12T05:11:13;99063.91;;;18.79;100.00
7668;BME280;3876;42.204;24.686;2022-09-12T05:13:41;99062.00;;;18.94;100.00
7668;BME280;3876;42.204;24.686;2022-09-12T05:16:10;99052.41;;;19.07;100.00
7668;BME280;3876;42.204;24.686;2022-09-12T05:18:38;99069.72;;;19.32;100.00
7668;BME280;3876;42.204;24.686;2022-09-12T05:21:06;99074.53;;;19.49;100.00
7668;BME280;3876;42.204;24.686;2022-09-12T05:23:34;99077.84;;;19.64;100.00
7668;BME280;3876;42.204;24.686;2022-09-12T05:26:02;99074.00;;;19.80;100.00
7668;BME280;3876;42.204;24.686;2022-09-12T05:28:31;99075.72;;;19.92;98.98
7668;BME280;3876;42.204;24.686;2022-09-12T05:31:02;99070.75;;;20.01;98.69
7668;BME280;3876;42.204;24.686;2022-09-12T05:33:32;99054.75;;;19.94;98.64
7668;BME280;3876;42.204;24.686;2022-09-12T05:36:01;99073.19;;;20.15;97.43
7668;BME280;3876;42.204;24.686;2022-09-12T05:38:28;99079.75;;;20.31;95.45
7668;BME280;3876;42.204;24.686;2022-09-12T05:41:02;99080.63;;;20.54;94.84
7668;BME280;3876;42.204;24.686;2022-09-12T05:43:30;99078.97;;;20.75;93.97
7668;BME280;3876;42.204;24.686;2022-09-12T05:46:00;99075.91;;;20.92;94.09
7668;BME280;3876;42.204;24.686;2022-09-12T05:48:27;99084.94;;;21.22;92.85
7668;BME280;3876;42.204;24.686;2022-09-12T05:51:00;99080.84;;;21.40;91.48
7668;BME280;3876;42.204;24.686;2022-09-12T05:53:27;99083.19;;;21.54;90.35
7668;BME280;3876;42.204;24.686;2022-09-12T05:56:03;99079.63;;;21.55;88.96
7668;BME280;3876;42.204;24.686;2022-09-12T05:58:30;99075.38;;;21.43;89.37
7668;BME280;3876;42.204;24.686;2022-09-12T06:01:01;99075.88;;;21.37;90.27
7668;BME280;3876;42.204;24.686;2022-09-12T06:03:28;99080.03;;;21.39;91.06
7668;BME280;3876;42.204;24.686;2022-09-12T06:05:55;99064.34;;;21.51;90.67
7668;BME280;3876;42.204;24.686;2022-09-12T06:08:23;99071.75;;;21.77;91.01
7668;BME280;3876;42.204;24.686;2022-09-12T06:10:50;99074.81;;;21.71;90.34
7668;BME280;3876;42.204;24.686;2022-09-12T06:13:16;99069.72;;;21.81;90.03
7668;BME280;3876;42.204;24.686;2022-09-12T06:15:43;99071.47;;;21.91;90.35
7668;BME280;3876;42.204;24.686;2022-09-12T06:18:10;99070.97;;;21.97;90.68
7668;BME280;3876;42.204;24.686;2022-09-12T06:20:37;99070.28;;;21.95;89.21
7668;BME280;3876;42.204;24.686;2022-09-12T06:23:04;99073.06;;;22.04;89.03
7668;BME280;3876;42.204;24.686;2022-09-12T06:25:32;99071.28;;;22.04;89.74
7668;BME280;3876;42.204;24.686;2022-09-12T06:27:59;99075.88;;;22.12;90.32
7668;BME280;3876;42.204;24.686;2022-09-12T06:30:25;99075.06;;;22.32;88.83
7668;BME280;3876;42.204;24.686;2022-09-12T06:32:52;99078.22;;;22.56;88.43
7668;BME280;3876;42.204;24.686;2022-09-12T06:35:21;99080.59;;;22.80;85.67
7668;BME280;3876;42.204;24.686;2022-09-12T06:37:47;99073.25;;;23.14;87.13
7668;BME280;3876;42.204;24.686;2022-09-12T06:40:14;99076.63;;;23.25;84.54
7668;BME280;3876;42.204;24.686;2022-09-12T06:42:42;99080.97;;;23.45;83.63
7668;BME280;3876;42.204;24.686;2022-09-12T06:45:09;99067.91;;;23.55;81.45
7668;BME280;3876;42.204;24.686;2022-09-12T06:47:36;99075.06;;;23.72;79.45
7668;BME280;3876;42.204;24.686;2022-09-12T06:50:04;99083.88;;;23.71;78.10
7668;BME280;3876;42.204;24.686;2022-09-12T06:52:31;99066.50;;;23.51;79.71
7668;BME280;3876;42.204;24.686;2022-09-12T06:54:58;99067.31;;;23.42;77.99
7668;BME280;3876;42.204;24.686;2022-09-12T06:57:24;99068.97;;;23.43;79.70
7668;BME280;3876;42.204;24.686;2022-09-12T06:59:56;99067.91;;;23.55;78.31
7668;BME280;3876;42.204;24.686;2022-09-12T07:02:23;99072.88;;;23.68;80.06
7668;BME280;3876;42.204;24.686;2022-09-12T07:04:50;99070.53;;;23.65;78.54
7668;BME280;3876;42.204;24.686;2022-09-12T07:07:17;99066.38;;;23.72;78.87
7668;BME280;3876;42.204;24.686;2022-09-12T07:09:44;99069.53;;;23.94;79.37
7668;BME280;3876;42.204;24.686;2022-09-12T07:12:10;99063.50;;;24.03;78.56
7668;BME280;3876;42.204;24.686;2022-09-12T07:14:37;99064.72;;;24.09;74.95
7668;BME280;3876;42.204;24.686;2022-09-12T07:17:06;99064.31;;;24.14;74.78
7668;BME280;3876;42.204;24.686;2022-09-12T07:19:33;99061.56;;;24.25;72.99
7668;BME280;3876;42.204;24.686;2022-09-12T07:21:59;99063.78;;;24.29;76.32
7668;BME280;3876;42.204;24.686;2022-09-12T07:24:26;99067.03;;;24.41;73.10
7668;BME280;3876;42.204;24.686;2022-09-12T07:26:53;99067.16;;;24.49;72.57
7668;BME280;3876;42.204;24.686;2022-09-12T07:29:20;99064.25;;;24.52;71.34
7668;BME280;3876;42.204;24.686;2022-09-12T07:31:47;99065.19;;;24.61;70.23
7668;BME280;3876;42.204;24.686;2022-09-12T07:34:15;99071.44;;;24.50;72.18
7668;BME280;3876;42.204;24.686;2022-09-12T07:36:42;99066.34;;;24.48;70.52
7668;BME280;3876;42.204;24.686;2022-09-12T07:39:08;99066.50;;;24.37;70.76
7668;BME280;3876;42.204;24.686;2022-09-12T07:41:36;99056.56;;;24.41;72.12
7668;BME280;3876;42.204;24.686;2022-09-12T07:44:03;99059.38;;;24.67;71.56
7668;BME280;3876;42.204;24.686;2022-09-12T07:46:31;99062.38;;;24.81;70.05
7668;BME280;3876;42.204;24.686;2022-09-12T07:49:00;99060.75;;;24.71;68.65
7668;BME280;3876;42.204;24.686;2022-09-12T07:51:29;99067.13;;;24.68;68.64
7668;BME280;3876;42.204;24.686;2022-09-12T07:53:56;99067.63;;;24.81;69.97
7668;BME280;3876;42.204;24.686;2022-09-12T07:56:23;99065.25;;;24.78;67.31
7668;BME280;3876;42.204;24.686;2022-09-12T07:58:51;99067.78;;;24.70;65.26
7668;BME280;3876;42.204;24.686;2022-09-12T08:01:19;99069.03;;;24.66;66.70
7668;BME280;3876;42.204;24.686;2022-09-12T08:03:48;99060.22;;;24.67;67.72
7668;BME280;3876;42.204;24.686;2022-09-12T08:06:17;99058.91;;;24.81;66.99
7668;BME280;3876;42.204;24.686;2022-09-12T08:08:47;99060.00;;;24.97;65.20
7668;BME280;3876;42.204;24.686;2022-09-12T08:11:17;99054.50;;;24.91;66.08
7668;BME280;3876;42.204;24.686;2022-09-12T08:13:44;99057.53;;;24.86;66.88
7668;BME280;3876;42.204;24.686;2022-09-12T08:16:13;99054.03;;;24.95;66.88
7668;BME280;3876;42.204;24.686;2022-09-12T08:18:40;99053.13;;;24.87;66.22
7668;BME280;3876;42.204;24.686;2022-09-12T08:21:12;99052.44;;;25.12;66.32
7668;BME280;3876;42.204;24.686;2022-09-12T08:23:39;99053.22;;;25.22;65.44
7668;BME280;3876;42.204;24.686;2022-09-12T08:26:12;99064.13;;;25.45;64.63
7668;BME280;3876;42.204;24.686;2022-09-12T08:28:39;99054.66;;;25.62;65.39
7668;BME280;3876;42.204;24.686;2022-09-12T08:31:11;99051.66;;;25.74;63.84
7668;BME280;3876;42.204;24.686;2022-09-12T08:33:38;99051.19;;;25.79;62.42
7668;BME280;3876;42.204;24.686;2022-09-12T08:36:06;99040.53;;;25.80;63.84
7668;BME280;3876;42.204;24.686;2022-09-12T08:38:35;99052.31;;;25.76;63.29
7668;BME280;3876;42.204;24.686;2022-09-12T08:41:08;99047.06;;;25.76;62.92
7668;BME280;3876;42.204;24.686;2022-09-12T08:44:06;99046.66;;;25.89;62.33
7668;BME280;3876;42.204;24.686;2022-09-12T08:46:41;99034.97;;;25.66;62.47
7668;BME280;3876;42.204;24.686;2022-09-12T08:49:14;99036.28;;;25.62;64.46
7668;BME280;3876;42.204;24.686;2022-09-12T08:51:47;99029.91;;;25.64;64.31
7668;BME280;3876;42.204;24.686;2022-09-12T08:54:20;99038.81;;;25.71;64.07
7668;BME280;3876;42.204;24.686;2022-09-12T08:56:50;99038.44;;;25.84;61.58
7668;BME280;3876;42.204;24.686;2022-09-12T08:59:23;99040.59;;;26.06;64.00
7668;BME280;3876;42.204;24.686;2022-09-12T09:01:53;99038.34;;;25.93;61.79
7668;BME280;3876;42.204;24.686;2022-09-12T09:04:42;99037.66;;;26.09;61.99
7668;BME280;3876;42.204;24.686;2022-09-12T09:07:24;99031.56;;;26.08;61.83
7668;BME280;3876;42.204;24.686;2022-09-12T09:10:05;99033.75;;;26.13;61.64
7668;BME280;3876;42.204;24.686;2022-09-12T09:12:41;99035.78;;;26.19;60.75
7668;BME280;3876;42.204;24.686;2022-09-12T09:15:42;99016.88;;;26.41;59.38
7668;BME280;3876;42.204;24.686;2022-09-12T09:18:19;99018.88;;;26.47;60.56
7668;BME280;3876;42.204;24.686;2022-09-12T09:20:50;99021.38;;;26.57;58.90
7668;BME280;3876;42.204;24.686;2022-09-12T09:23:24;99020.94;;;26.61;58.36
7668;BME280;3876;42.204;24.686;2022-09-12T09:25:57;99023.38;;;26.63;56.04
7668;BME280;3876;42.204;24.686;2022-09-12T09:28:31;99013.56;;;26.65;55.48
7668;BME280;3876;42.204;24.686;2022-09-12T09:31:01;99019.53;;;26.75;54.86
7668;BME280;3876;42.204;24.686;2022-09-12T09:33:32;99011.22;;;26.88;55.68
7668;BME280;3876;42.204;24.686;2022-09-12T09:36:06;99015.34;;;26.98;52.31
7668;BME280;3876;42.204;24.686;2022-09-12T09:38:45;99004.81;;;26.98;54.60
7668;BME280;3876;42.204;24.686;2022-09-12T09:41:32;99011.09;;;26.97;54.29
7668;BME280;3876;42.204;24.686;2022-09-12T09:44:02;99011.41;;;27.02;53.86
7668;BME280;3876;42.204;24.686;2022-09-12T09:46:31;99009.09;;;26.91;51.81
7668;BME280;3876;42.204;24.686;2022-09-12T09:48:59;99019.25;;;26.86;53.18
7668;BME280;3876;42.204;24.686;2022-09-12T09:51:32;98993.59;;;26.88;52.85
7668;BME280;3876;42.204;24.686;2022-09-12T09:54:02;99012.44;;;27.09;54.43
7668;BME280;3876;42.204;24.686;2022-09-12T09:56:33;99013.59;;;27.07;54.71
7668;BME280;3876;42.204;24.686;2022-09-12T09:59:10;98997.28;;;27.11;54.72
7668;BME280;3876;42.204;24.686;2022-09-12T10:01:45;99005.22;;;27.28;53.55
7668;BME280;3876;42.204;24.686;2022-09-12T10:04:20;98983.00;;;27.14;51.42
7668;BME280;3876;42.204;24.686;2022-09-12T10:06:50;99015.09;;;27.26;50.17
7668;BME280;3876;42.204;24.686;2022-09-12T10:09:21;98980.03;;;27.09;51.72
7668;BME280;3876;42.204;24.686;2022-09-12T10:11:49;99004.91;;;27.31;50.30
7668;BME280;3876;42.204;24.686;2022-09-12T10:14:29;99003.28;;;27.30;52.71
7668;BME280;3876;42.204;24.686;2022-09-12T10:16:57;98997.00;;;27.23;51.15
7668;BME280;3876;42.204;24.686;2022-09-12T10:19:33;99009.84;;;27.34;53.00
7668;BME280;3876;42.204;24.686;2022-09-12T10:22:01;99012.81;;;27.39;50.42
7668;BME280;3876;42.204;24.686;2022-09-12T10:24:32;98999.38;;;27.50;53.28
7668;BME280;3876;42.204;24.686;2022-09-12T10:27:07;99005.47;;;27.50;49.29
7668;BME280;3876;42.204;24.686;2022-09-12T10:29:39;99007.28;;;27.58;51.29
7668;BME280;3876;42.204;24.686;2022-09-12T10:32:09;99008.72;;;27.36;48.87
7668;BME280;3876;42.204;24.686;2022-09-12T10:34:42;99002.22;;;27.14;51.23
7668;BME280;3876;42.204;24.686;2022-09-12T10:37:17;99002.22;;;27.14;52.59
7668;BME280;3876;42.204;24.686;2022-09-12T10:39:50;98990.91;;;27.14;54.09
7668;BME280;3876;42.204;24.686;2022-09-12T10:42:46;98996.50;;;27.19;53.20
7668;BME280;3876;42.204;24.686;2022-09-12T10:45:19;98992.22;;;27.18;55.50
7668;BME280;3876;42.204;24.686;2022-09-12T10:47:48;98994.72;;;27.36;54.73
7668;BME280;3876;42.204;24.686;2022-09-12T10:50:23;98984.56;;;27.49;50.96
7668;BME280;3876;42.204;24.686;2022-09-12T10:52:51;98991.13;;;27.45;50.94
7668;BME280;3876;42.204;24.686;2022-09-12T10:55:22;98993.47;;;27.56;49.84
7668;BME280;3876;42.204;24.686;2022-09-12T10:58:04;98984.91;;;27.70;53.22
7668;BME280;3876;42.204;24.686;2022-09-12T11:00:39;98992.47;;;27.65;50.74
7668;BME280;3876;42.204;24.686;2022-09-12T11:03:21;98998.38;;;27.43;50.94
7668;BME280;3876;42.204;24.686;2022-09-12T11:05:54;99000.63;;;27.38;50.88
7668;BME280;3876;42.204;24.686;2022-09-12T11:08:36;99004.84;;;27.06;51.06
7668;BME280;3876;42.204;24.686;2022-09-12T11:11:16;98999.88;;;26.95;50.18
7668;BME280;3876;42.204;24.686;2022-09-12T11:14:03;98993.59;;;26.88;52.14
7668;BME280;3876;42.204;24.686;2022-09-12T11:16:36;98992.28;;;26.84;49.24
7668;BME280;3876;42.204;24.686;2022-09-12T11:19:31;98988.69;;;26.59;51.27
7668;BME280;3876;42.204;24.686;2022-09-12T11:22:26;98979.63;;;26.54;50.60
7668;BME280;3876;42.204;24.686;2022-09-12T11:25:25;98992.94;;;26.52;51.00
7668;BME280;3876;42.204;24.686;2022-09-12T11:28:05;98985.63;;;26.72;50.67
7668;BME280;3876;42.204;24.686;2022-09-12T11:30:53;98977.66;;;26.82;51.79
7668;BME280;3876;42.204;24.686;2022-09-12T11:33:37;98993.97;;;26.93;50.94
7668;BME280;3876;42.204;24.686;2022-09-12T11:36:15;98978.50;;;26.98;54.60
7668;BME280;3876;42.204;24.686;2022-09-12T11:38:51;98987.91;;;27.01;52.43
7668;BME280;3876;42.204;24.686;2022-09-12T11:41:24;98984.59;;;26.99;51.22
7668;BME280;3876;42.204;24.686;2022-09-12T11:43:56;98976.06;;;26.97;53.64
7668;BME280;3876;42.204;24.686;2022-09-12T11:46:31;98978.03;;;27.11;54.13
7668;BME280;3876;42.204;24.686;2022-09-12T11:49:04;98984.50;;;27.17;52.42
7668;BME280;3876;42.204;24.686;2022-09-12T11:51:41;98967.69;;;27.18;52.08
7668;BME280;3876;42.204;24.686;2022-09-12T11:54:15;98975.59;;;27.18;51.66
7668;BME280;3876;42.204;24.686;2022-09-12T11:56:46;98968.03;;;27.14;50.98
7668;BME280;3876;42.204;24.686;2022-09-12T11:59:23;98975.44;;;27.19;49.48
7668;BME280;3876;42.204;24.686;2022-09-12T12:01:55;98969.38;;;27.27;49.67
7668;BME280;3876;42.204;24.686;2022-09-12T12:04:31;98971.00;;;27.20;48.40
7668;BME280;3876;42.204;24.686;2022-09-12T12:07:04;98966.41;;;27.13;50.98
7668;BME280;3876;42.204;24.686;2022-09-12T12:09:32;98971.31;;;27.08;51.28
7668;BME280;3876;42.204;24.686;2022-09-12T12:12:02;98959.47;;;27.12;52.00
7668;BME280;3876;42.204;24.686;2022-09-12T12:14:36;98953.56;;;27.10;51.72
7668;BME280;3876;42.204;24.686;2022-09-12T12:17:13;98953.25;;;27.13;52.29
7668;BME280;3876;42.204;24.686;2022-09-12T12:19:41;98967.06;;;27.24;49.14
7668;BME280;3876;42.204;24.686;2022-09-12T12:22:17;98957.34;;;27.24;48.03
7668;BME280;3876;42.204;24.686;2022-09-12T12:25:20;98950.97;;;27.27;47.38
7668;BME280;3876;42.204;24.686;2022-09-12T12:27:52;98956.22;;;27.27;49.02
7668;BME280;3876;42.204;24.686;2022-09-12T12:33:59;98955.34;;;26.94;48.04
7668;BME280;3876;42.204;24.686;2022-09-12T12:36:37;98945.31;;;26.97;49.35
7668;BME280;3876;42.204;24.686;2022-09-12T12:42:57;98948.66;;;27.24;49.66
7668;BME280;3876;42.204;24.686;2022-09-12T12:48:33;98956.88;;;27.37;46.86
7668;BME280;3876;42.204;24.686;2022-09-12T12:51:26;98956.22;;;27.27;46.73
7668;BME280;3876;42.204;24.686;2022-09-12T12:53:55;98953.06;;;27.07;48.99
7668;BME280;3876;42.204;24.686;2022-09-12T12:56:29;98936.06;;;26.85;48.74
7668;BME280;3876;42.204;24.686;2022-09-12T12:59:02;98954.75;;;26.74;49.61
7668;BME280;3876;42.204;24.686;2022-09-12T13:01:31;98950.44;;;26.65;49.65
7668;BME280;3876;42.204;24.686;2022-09-12T13:04:12;98936.75;;;26.53;50.66
7668;BME280;3876;42.204;24.686;2022-09-12T13:06:41;98944.81;;;26.60;50.74
7668;BME280;3876;42.204;24.686;2022-09-12T13:09:19;98917.81;;;26.42;50.67
7668;BME280;3876;42.204;24.686;2022-09-12T13:11:56;98953.09;;;26.73;50.32
7668;BME280;3876;42.204;24.686;2022-09-12T13:14:48;98943.91;;;26.77;50.38
7668;BME280;3876;42.204;24.686;2022-09-12T13:17:21;98953.81;;;26.83;49.46
7668;BME280;3876;42.204;24.686;2022-09-12T13:19:52;98944.19;;;26.66;48.24
7668;BME280;3876;42.204;24.686;2022-09-12T13:22:22;98942.75;;;26.72;48.74
7668;BME280;3876;42.204;24.686;2022-09-12T13:24:50;98940.28;;;26.78;49.95
7668;BME280;3876;42.204;24.686;2022-09-12T13:27:19;98934.69;;;26.73;49.24
7668;BME280;3876;42.204;24.686;2022-09-12T13:29:48;98951.09;;;26.59;49.44
7668;BME280;3876;42.204;24.686;2022-09-12T13:32:17;98934.09;;;26.53;50.85
7668;BME280;3876;42.204;24.686;2022-09-12T13:34:59;98946.09;;;26.56;49.99
7668;BME280;3876;42.204;24.686;2022-09-12T13:37:42;98954.94;;;26.39;48.58
7668;BME280;3876;42.204;24.686;2022-09-12T13:40:27;98951.41;;;26.30;49.30
7668;BME280;3876;42.204;24.686;2022-09-12T13:43:08;98950.56;;;26.22;49.59